createdAt,value
2023-09-27T00:01:28.926Z,64.09
2023-09-27T00:04:01.177Z,64.77
2023-09-27T00:06:32.937Z,65.08
2023-09-27T00:09:05.834Z,64.83
2023-09-27T00:11:37.625Z,64.36
2023-09-27T00:14:09.872Z,63.88
2023-09-27T00:16:41.882Z,63.73
2023-09-27T00:19:13.822Z,63.54
2023-09-27T00:21:45.760Z,63.53
2023-09-27T00:24:18.198Z,63.15
2023-09-27T00:26:49.947Z,63.61
2023-09-27T00:29:21.875Z,65.25
2023-09-27T00:31:53.790Z,65.11
2023-09-27T00:34:25.620Z,64.98
2023-09-27T00:36:57.369Z,64.74
2023-09-27T00:39:29.333Z,63.97
2023-09-27T00:42:00.999Z,63.64
2023-09-27T00:44:32.991Z,63.29
2023-09-27T00:47:06.098Z,63.42
2023-09-27T00:49:38.730Z,63.99
2023-09-27T00:52:10.670Z,64.26
2023-09-27T00:54:43.098Z,63.91
2023-09-27T00:57:15.051Z,63.91
2023-09-27T00:59:47.505Z,63.65
2023-09-27T01:02:20.102Z,63.63
2023-09-27T01:04:52.132Z,62.94
2023-09-27T01:07:24.200Z,63.19
2023-09-27T01:09:55.892Z,63.35
2023-09-27T01:12:27.601Z,63.40
2023-09-27T01:14:59.507Z,63.32
2023-09-27T01:17:31.211Z,63.14
2023-09-27T01:20:03.077Z,63.67
2023-09-27T01:22:34.784Z,63.80
2023-09-27T01:25:13.662Z,64.19
2023-09-27T01:27:46.129Z,63.78
2023-09-27T01:30:17.771Z,63.43
2023-09-27T01:32:49.501Z,63.18
2023-09-27T01:35:21.402Z,64.15
2023-09-27T01:37:53.152Z,63.98
2023-09-27T01:40:28.097Z,63.41
2023-09-27T01:43:00.334Z,64.06
2023-09-27T01:45:33.013Z,65.52
2023-09-27T01:48:06.329Z,65.41
2023-09-27T01:50:39.094Z,65.45
2023-09-27T01:53:11.319Z,64.78
2023-09-27T01:55:43.155Z,64.93
2023-09-27T01:58:14.758Z,64.27
2023-09-27T02:00:46.449Z,64.01
2023-09-27T02:03:18.311Z,63.86
2023-09-27T02:05:51.925Z,64.10
2023-09-27T02:08:23.792Z,64.39
2023-09-27T02:10:55.792Z,64.56
2023-09-27T02:13:27.610Z,64.50
2023-09-27T02:15:59.934Z,64.09
2023-09-27T02:18:31.962Z,63.92
2023-09-27T02:21:04.345Z,63.70
2023-09-27T02:23:36.760Z,64.43
2023-09-27T02:26:08.888Z,64.49
2023-09-27T02:28:40.720Z,64.56
2023-09-27T02:31:15.669Z,64.68
2023-09-27T02:33:47.734Z,65.29
2023-09-27T02:36:19.548Z,65.29
2023-09-27T02:38:51.503Z,64.76
2023-09-27T02:41:23.367Z,65.17
2023-09-27T02:43:55.138Z,64.84
2023-09-27T02:46:26.946Z,64.46
2023-09-27T02:48:58.690Z,64.32
2023-09-27T02:51:30.476Z,64.37
2023-09-27T02:54:02.508Z,65.05
2023-09-27T02:56:34.381Z,65.14
2023-09-27T02:59:06.199Z,64.91
2023-09-27T03:01:39.437Z,64.95
2023-09-27T03:04:12.190Z,64.91
2023-09-27T03:06:44.062Z,64.95
2023-09-27T03:09:17.268Z,64.46
2023-09-27T03:11:49.394Z,64.23
2023-09-27T03:14:21.231Z,65.16
2023-09-27T03:16:52.865Z,66.55
2023-09-27T03:19:25.892Z,65.87
2023-09-27T03:21:57.557Z,66.10
2023-09-27T03:24:30.620Z,65.59
2023-09-27T03:27:04.276Z,65.80
2023-09-27T03:29:36.752Z,65.87
2023-09-27T03:32:08.592Z,66.16
2023-09-27T03:34:40.579Z,65.50
2023-09-27T03:37:12.239Z,65.62
2023-09-27T03:39:43.824Z,65.46
2023-09-27T03:42:15.576Z,66.78
2023-09-27T03:44:48.188Z,66.22
2023-09-27T03:47:20.227Z,65.44
2023-09-27T03:49:52.099Z,65.08
2023-09-27T03:52:23.998Z,64.50
2023-09-27T03:54:56.373Z,65.62
2023-09-27T03:57:28.334Z,66.25
2023-09-27T03:59:59.996Z,65.78
2023-09-27T04:02:33.101Z,65.57
2023-09-27T04:05:05.717Z,65.60
2023-09-27T04:07:38.029Z,65.31
2023-09-27T04:10:13.048Z,65.34
2023-09-27T04:12:45.186Z,64.95
2023-09-27T04:15:17.571Z,64.43
2023-09-27T04:17:49.432Z,64.69
2023-09-27T04:20:23.040Z,64.68
2023-09-27T04:22:54.790Z,64.18
2023-09-27T04:25:27.188Z,64.19
2023-09-27T04:27:59.210Z,64.44
2023-09-27T04:30:31.065Z,64.79
2023-09-27T04:33:02.806Z,64.92
2023-09-27T04:35:34.911Z,64.93
2023-09-27T04:38:08.697Z,65.13
2023-09-27T04:40:40.728Z,65.27
2023-09-27T04:43:12.590Z,65.48
2023-09-27T04:45:44.679Z,65.06
2023-09-27T04:48:16.430Z,64.95
2023-09-27T04:50:48.191Z,64.71
2023-09-27T04:53:20.072Z,64.46
2023-09-27T04:55:52.297Z,64.21
2023-09-27T04:58:24.084Z,64.61
2023-09-27T05:00:56.102Z,65.49
2023-09-27T05:03:28.177Z,65.53
2023-09-27T05:06:00.106Z,65.58
2023-09-27T05:08:32.152Z,65.72
2023-09-27T05:11:04.157Z,65.66
2023-09-27T05:13:36.032Z,65.13
2023-09-27T05:16:08.396Z,65.53
2023-09-27T05:18:40.530Z,65.25
2023-09-27T05:21:12.207Z,64.81
2023-09-27T05:23:44.860Z,64.45
2023-09-27T05:26:16.652Z,64.37
2023-09-27T05:28:48.316Z,64.53
2023-09-27T05:31:20.189Z,64.57
2023-09-27T05:33:52.020Z,64.47
2023-09-27T05:36:23.725Z,64.08
2023-09-27T05:38:55.426Z,64.16
2023-09-27T05:41:27.648Z,64.50
2023-09-27T05:43:59.741Z,63.93
2023-09-27T05:46:33.548Z,63.60
2023-09-27T05:49:09.398Z,63.26
2023-09-27T05:51:41.704Z,63.16
2023-09-27T05:54:13.731Z,62.98
2023-09-27T05:56:47.251Z,63.31
2023-09-27T05:59:19.139Z,63.77
2023-09-27T06:01:52.820Z,64.11
2023-09-27T06:04:25.065Z,63.97
2023-09-27T06:06:59.104Z,63.54
2023-09-27T06:09:30.827Z,63.34
2023-09-27T06:12:02.555Z,63.39
2023-09-27T06:14:34.511Z,63.79
2023-09-27T06:17:07.385Z,63.74
2023-09-27T06:19:40.469Z,62.66
2023-09-27T06:22:14.739Z,62.16
2023-09-27T06:24:47.529Z,62.32
2023-09-27T06:27:19.248Z,62.04
2023-09-27T06:29:52.360Z,61.67
2023-09-27T06:32:24.423Z,61.50
2023-09-27T06:34:56.230Z,61.70
2023-09-27T06:37:29.253Z,61.33
2023-09-27T06:40:00.894Z,60.76
2023-09-27T06:42:32.776Z,60.76
2023-09-27T06:45:05.392Z,60.93
2023-09-27T06:47:39.605Z,61.56
2023-09-27T06:50:13.468Z,61.32
2023-09-27T06:52:46.985Z,60.94
2023-09-27T06:55:19.947Z,60.34
2023-09-27T06:57:53.645Z,59.50
2023-09-27T07:00:26.295Z,59.16
2023-09-27T07:02:58.667Z,58.46
2023-09-27T07:05:31.197Z,57.24
2023-09-27T07:08:03.497Z,53.65
2023-09-27T07:10:35.760Z,48.73
2023-09-27T07:13:07.931Z,43.03
2023-09-27T07:15:39.970Z,37.88
2023-09-27T07:18:11.708Z,35.06
2023-09-27T07:20:44.870Z,34.17
2023-09-27T07:23:17.001Z,31.80
2023-09-27T07:25:49.545Z,30.30
2023-09-27T07:28:21.191Z,28.35
2023-09-27T07:30:54.335Z,27.47
2023-09-27T07:33:26.935Z,26.91
2023-09-27T07:35:59.852Z,27.68
2023-09-27T07:38:31.683Z,25.13
2023-09-27T07:41:03.958Z,24.14
2023-09-27T07:43:35.769Z,24.41
2023-09-27T07:46:08.469Z,22.37
2023-09-27T07:48:42.797Z,22.43
2023-09-27T07:51:19.421Z,21.12
2023-09-27T07:53:51.219Z,21.73
2023-09-27T07:56:25.018Z,20.31
2023-09-27T07:58:57.284Z,20.87
2023-09-27T08:01:29.353Z,20.00
2023-09-27T08:04:11.065Z,21.84
2023-09-27T08:06:46.629Z,22.09
2023-09-27T08:09:35.160Z,21.60
2023-09-27T08:12:10.157Z,22.25
2023-09-27T08:14:41.922Z,23.58
2023-09-27T08:17:13.890Z,22.27
2023-09-27T08:19:45.651Z,22.21
2023-09-27T08:22:17.552Z,20.92
2023-09-27T08:24:49.297Z,21.61
2023-09-27T08:27:23.792Z,22.17
2023-09-27T08:29:55.914Z,21.78
2023-09-27T08:32:27.771Z,21.61
2023-09-27T08:34:59.724Z,22.60
2023-09-27T08:37:32.606Z,23.72
2023-09-27T08:40:06.370Z,22.08
2023-09-27T08:42:38.880Z,21.47
2023-09-27T08:45:15.347Z,20.84
2023-09-27T08:47:49.835Z,20.59
2023-09-27T08:50:22.302Z,21.03
2023-09-27T08:52:54.922Z,21.45
2023-09-27T08:55:26.998Z,22.61
2023-09-27T08:58:00.578Z,23.03
2023-09-27T09:00:34.056Z,22.07
2023-09-27T09:03:07.093Z,21.48
2023-09-27T09:05:41.026Z,21.12
2023-09-27T09:08:13.851Z,20.19
2023-09-27T09:10:46.956Z,19.57
2023-09-27T09:13:22.998Z,19.62
2023-09-27T09:15:54.824Z,21.63
2023-09-27T09:18:32.543Z,23.49
2023-09-27T09:21:10.990Z,22.94
2023-09-27T09:23:48.945Z,22.42
2023-09-27T09:26:31.746Z,21.47
2023-09-27T09:29:03.932Z,20.83
2023-09-27T09:31:36.179Z,19.94
2023-09-27T09:34:09.920Z,19.52
2023-09-27T09:36:41.695Z,19.43
2023-09-27T09:39:15.461Z,18.58
2023-09-27T09:41:53.367Z,18.42
2023-09-27T09:44:26.419Z,18.42
2023-09-27T09:47:11.162Z,18.75
2023-09-27T09:49:43.917Z,19.22
2023-09-27T09:52:18.440Z,20.13
2023-09-27T09:54:57.179Z,20.51
2023-09-27T09:57:52.148Z,19.91
2023-09-27T10:00:29.028Z,19.03
2023-09-27T10:03:07.018Z,19.45
2023-09-27T10:05:40.861Z,20.46
2023-09-27T10:08:12.726Z,20.62
2023-09-27T10:10:45.073Z,21.29
2023-09-27T10:13:19.312Z,21.73
2023-09-27T10:15:52.062Z,22.56
2023-09-27T10:18:38.169Z,24.10
2023-09-27T10:21:14.176Z,24.88
2023-09-27T10:24:03.771Z,26.34
2023-09-27T10:26:39.072Z,26.77
2023-09-27T10:29:18.789Z,25.29
2023-09-27T10:32:24.106Z,24.22
2023-09-27T10:34:56.334Z,25.62
2023-09-27T10:38:00.767Z,26.87
2023-09-27T10:40:44.195Z,27.08
2023-09-27T10:43:42.122Z,25.38
2023-09-27T10:46:12.990Z,24.65
2023-09-27T10:48:44.717Z,24.30
2023-09-27T10:51:16.453Z,23.13
2023-09-27T10:53:49.555Z,22.81
2023-09-27T10:56:21.923Z,22.64
2023-09-27T10:58:54.312Z,23.08
2023-09-27T11:01:26.962Z,23.00
2023-09-27T11:04:03.140Z,22.75
2023-09-27T11:06:35.612Z,23.06
2023-09-27T11:09:13.427Z,22.55
2023-09-27T11:11:47.884Z,22.11
2023-09-27T11:14:32.407Z,21.41
2023-09-27T11:17:19.461Z,21.33
2023-09-27T11:19:51.574Z,21.90
2023-09-27T11:22:30.760Z,22.40
2023-09-27T11:25:02.846Z,22.64
2023-09-27T11:27:35.343Z,22.75
2023-09-27T11:30:09.412Z,22.94
2023-09-27T11:32:53.405Z,22.59
2023-09-27T11:35:27.934Z,22.99
2023-09-27T11:38:11.766Z,23.30
2023-09-27T11:40:45.329Z,24.45
2023-09-27T11:43:18.899Z,25.40
2023-09-27T11:45:52.069Z,25.48
2023-09-27T11:48:36.104Z,25.40
2023-09-27T11:51:08.552Z,27.22
2023-09-27T11:53:40.583Z,27.98
2023-09-27T11:56:12.690Z,28.07
2023-09-27T11:58:44.318Z,28.90
2023-09-27T12:01:16.076Z,30.23
2023-09-27T12:03:49.435Z,30.62
2023-09-27T12:06:26.338Z,30.20
2023-09-27T12:08:59.613Z,29.77
2023-09-27T12:11:31.627Z,29.62
2023-09-27T12:14:03.442Z,30.56
2023-09-27T12:16:35.258Z,31.54
2023-09-27T12:19:07.292Z,31.38
2023-09-27T12:21:40.677Z,31.74
2023-09-27T12:24:12.658Z,32.97
2023-09-27T12:26:44.572Z,33.64
2023-09-27T12:29:16.545Z,33.02
2023-09-27T12:31:48.363Z,33.14
2023-09-27T12:34:20.811Z,34.02
2023-09-27T12:36:52.566Z,33.98
2023-09-27T12:39:24.188Z,33.25
2023-09-27T12:42:01.441Z,34.17
2023-09-27T12:44:33.238Z,34.33
2023-09-27T12:47:05.276Z,33.54
2023-09-27T12:49:36.986Z,33.68
2023-09-27T12:52:08.846Z,33.30
2023-09-27T12:54:40.845Z,32.85
2023-09-27T12:57:12.581Z,33.27
2023-09-27T12:59:44.492Z,34.57
2023-09-27T13:02:16.445Z,34.41
2023-09-27T13:04:48.816Z,34.51
2023-09-27T13:07:20.592Z,34.45
2023-09-27T13:09:52.324Z,34.87
2023-09-27T13:12:24.529Z,35.87
2023-09-27T13:14:57.667Z,36.07
2023-09-27T13:17:29.715Z,35.53
2023-09-27T13:20:01.454Z,34.96
2023-09-27T13:22:33.277Z,35.21
2023-09-27T13:25:07.499Z,34.86
2023-09-27T13:27:40.817Z,34.83
2023-09-27T13:30:29.659Z,34.75
2023-09-27T13:33:07.323Z,34.40
2023-09-27T13:35:39.550Z,34.59
2023-09-27T13:38:12.979Z,34.84
2023-09-27T13:40:45.602Z,34.92
2023-09-27T13:43:17.285Z,35.22
2023-09-27T13:45:49.061Z,35.21
2023-09-27T13:48:21.303Z,34.85
2023-09-27T13:50:53.220Z,34.55
2023-09-27T13:53:24.909Z,34.31
2023-09-27T13:55:56.689Z,34.57
2023-09-27T13:58:28.637Z,34.74
2023-09-27T14:01:00.713Z,34.67
2023-09-27T14:03:32.754Z,34.70
2023-09-27T14:06:05.390Z,34.84
2023-09-27T14:08:37.536Z,35.66
2023-09-27T14:11:16.113Z,35.48
2023-09-27T14:13:48.600Z,35.15
2023-09-27T14:16:21.615Z,35.22
2023-09-27T14:18:54.813Z,35.38
2023-09-27T14:21:26.998Z,35.28
2023-09-27T14:23:58.847Z,34.74
2023-09-27T14:26:31.515Z,34.44
2023-09-27T14:29:04.816Z,34.46
2023-09-27T14:31:36.715Z,34.69
2023-09-27T14:34:09.345Z,34.76
2023-09-27T14:36:41.434Z,35.05
2023-09-27T14:39:14.437Z,35.22
2023-09-27T14:41:47.691Z,35.57
2023-09-27T14:44:19.353Z,35.48
2023-09-27T14:46:51.287Z,35.63
2023-09-27T14:49:23.518Z,35.97
2023-09-27T14:51:55.400Z,35.52
2023-09-27T14:54:27.105Z,35.26
2023-09-27T14:56:59.675Z,35.69
2023-09-27T14:59:31.644Z,36.10
2023-09-27T15:02:03.432Z,36.35
2023-09-27T15:04:35.849Z,37.18
2023-09-27T15:07:08.101Z,37.47
2023-09-27T15:09:39.925Z,37.20
2023-09-27T15:12:11.616Z,37.25
2023-09-27T15:14:43.657Z,37.00
2023-09-27T15:17:18.115Z,36.86
2023-09-27T15:19:50.175Z,37.13
2023-09-27T15:22:22.132Z,37.32
2023-09-27T15:24:53.857Z,37.22
2023-09-27T15:27:25.532Z,37.69
2023-09-27T15:29:57.988Z,38.00
2023-09-27T15:32:30.436Z,38.06
2023-09-27T15:35:02.520Z,38.16
2023-09-27T15:37:34.367Z,38.05
2023-09-27T15:40:07.747Z,37.91
2023-09-27T15:42:39.563Z,37.73
2023-09-27T15:45:13.317Z,38.14
2023-09-27T15:47:45.171Z,38.35
2023-09-27T15:50:17.359Z,38.46
2023-09-27T15:52:49.624Z,39.21
2023-09-27T15:55:21.615Z,39.20
2023-09-27T15:57:54.657Z,39.09
2023-09-27T16:00:27.226Z,39.08
2023-09-27T16:02:59.831Z,39.56
2023-09-27T16:05:32.951Z,39.77
2023-09-27T16:08:05.484Z,39.60
2023-09-27T16:10:49.242Z,39.95
2023-09-27T16:13:26.602Z,41.05
2023-09-27T16:15:58.582Z,41.08
2023-09-27T16:18:30.414Z,41.16
2023-09-27T16:21:03.196Z,41.16
2023-09-27T16:23:35.040Z,41.88
2023-09-27T16:26:08.333Z,42.27
2023-09-27T16:28:40.473Z,42.55
2023-09-27T16:31:12.917Z,42.30
2023-09-27T16:33:47.977Z,41.78
2023-09-27T16:36:23.357Z,42.05
2023-09-27T16:38:55.436Z,42.64
2023-09-27T16:41:27.568Z,43.58
2023-09-27T16:44:00.425Z,43.90
2023-09-27T16:46:32.273Z,45.41
2023-09-27T16:49:05.216Z,45.85
2023-09-27T16:51:42.232Z,45.67
2023-09-27T16:54:16.033Z,46.60
2023-09-27T16:56:47.997Z,46.58
2023-09-27T16:59:19.854Z,47.05
2023-09-27T17:01:51.692Z,47.75
2023-09-27T17:04:23.717Z,48.33
2023-09-27T17:06:55.633Z,48.07
2023-09-27T17:09:27.829Z,48.79
2023-09-27T17:12:00.164Z,49.78
2023-09-27T17:14:32.481Z,50.95
2023-09-27T17:17:04.393Z,50.61
2023-09-27T17:19:36.431Z,50.13
2023-09-27T17:22:08.984Z,50.44
2023-09-27T17:24:41.037Z,50.12
2023-09-27T17:27:12.814Z,51.35
2023-09-27T17:29:44.948Z,51.81
2023-09-27T17:32:16.805Z,52.77
2023-09-27T17:34:48.692Z,53.19
2023-09-27T17:37:20.566Z,53.99
2023-09-27T17:39:52.589Z,55.35
2023-09-27T17:42:24.751Z,54.74
2023-09-27T17:44:56.399Z,55.26
2023-09-27T17:47:28.102Z,55.15
2023-09-27T17:50:00.228Z,55.58
2023-09-27T17:52:32.457Z,55.45
2023-09-27T17:55:05.253Z,55.78
2023-09-27T17:57:37.035Z,56.45
2023-09-27T18:00:11.255Z,56.80
2023-09-27T18:02:43.209Z,57.37
2023-09-27T18:05:15.035Z,57.34
2023-09-27T18:07:46.933Z,57.96
2023-09-27T18:10:19.098Z,58.03
2023-09-27T18:12:51.735Z,58.64
2023-09-27T18:15:28.282Z,58.42
2023-09-27T18:18:00.650Z,58.30
2023-09-27T18:20:32.650Z,58.13
2023-09-27T18:23:06.392Z,58.30
2023-09-27T18:25:38.790Z,58.61
2023-09-27T18:28:10.639Z,57.69
2023-09-27T18:30:42.576Z,58.99
2023-09-27T18:33:14.721Z,60.00
2023-09-27T18:35:47.749Z,60.01
2023-09-27T18:38:19.501Z,59.05
2023-09-27T18:40:51.504Z,58.99
2023-09-27T18:43:23.729Z,58.53
2023-09-27T18:45:55.588Z,58.74
2023-09-27T18:48:27.695Z,59.74
2023-09-27T18:51:00.187Z,60.46
2023-09-27T18:53:32.105Z,59.71
2023-09-27T18:56:03.895Z,60.10
2023-09-27T18:58:35.895Z,59.62
2023-09-27T19:01:08.195Z,59.16
2023-09-27T19:03:40.247Z,59.03
2023-09-27T19:06:16.046Z,58.56
2023-09-27T19:08:47.981Z,59.20
2023-09-27T19:11:23.094Z,60.39
2023-09-27T19:13:55.294Z,60.28
2023-09-27T19:16:31.736Z,60.72
2023-09-27T19:19:03.508Z,60.93
2023-09-27T19:21:35.334Z,59.85
2023-09-27T19:24:08.570Z,60.43
2023-09-27T19:26:41.087Z,60.96
2023-09-27T19:29:12.899Z,61.96
2023-09-27T19:31:45.051Z,60.80
2023-09-27T19:34:17.012Z,61.44
2023-09-27T19:36:48.849Z,60.64
2023-09-27T19:39:20.828Z,61.49
2023-09-27T19:41:52.715Z,61.43
2023-09-27T19:44:24.976Z,61.60
2023-09-27T19:46:57.728Z,60.80
2023-09-27T19:49:29.604Z,60.51
2023-09-27T19:52:01.554Z,61.40
2023-09-27T19:54:36.583Z,61.85
2023-09-27T19:57:08.458Z,62.25
2023-09-27T19:59:40.536Z,62.57
2023-09-27T20:02:12.883Z,61.92
2023-09-27T20:04:44.993Z,62.43
2023-09-27T20:07:16.903Z,61.51
2023-09-27T20:09:48.676Z,61.09
2023-09-27T20:12:20.434Z,61.39
2023-09-27T20:14:52.425Z,62.07
2023-09-27T20:17:24.461Z,63.24
2023-09-27T20:19:58.377Z,62.77
2023-09-27T20:22:30.206Z,61.69
2023-09-27T20:25:04.111Z,62.75
2023-09-27T20:27:36.007Z,63.12
2023-09-27T20:30:10.377Z,63.56
2023-09-27T20:32:42.745Z,63.84
2023-09-27T20:35:14.745Z,64.96
2023-09-27T20:37:46.526Z,63.84
2023-09-27T20:40:19.419Z,63.66
2023-09-27T20:42:51.185Z,63.34
2023-09-27T20:45:23.049Z,63.91
2023-09-27T20:47:54.748Z,63.57
2023-09-27T20:50:26.679Z,63.70
2023-09-27T20:52:58.472Z,64.96
2023-09-27T20:55:31.895Z,64.91
2023-09-27T20:58:05.111Z,65.49
2023-09-27T21:00:36.708Z,65.13
2023-09-27T21:03:08.923Z,64.86
2023-09-27T21:05:41.351Z,64.32
2023-09-27T21:08:13.061Z,63.38
2023-09-27T21:10:45.007Z,62.88
2023-09-27T21:13:16.967Z,63.69
2023-09-27T21:15:48.873Z,63.81
2023-09-27T21:18:21.134Z,64.22
2023-09-27T21:20:53.957Z,63.73
2023-09-27T21:23:25.681Z,64.20
2023-09-27T21:25:57.568Z,64.99
2023-09-27T21:28:29.964Z,65.40
2023-09-27T21:31:05.706Z,64.93
2023-09-27T21:33:37.778Z,63.92
2023-09-27T21:36:10.788Z,63.64
2023-09-27T21:38:42.557Z,63.75
2023-09-27T21:41:14.910Z,63.34
2023-09-27T21:43:46.659Z,63.34
2023-09-27T21:46:20.116Z,62.90
2023-09-27T21:48:53.141Z,62.78
2023-09-27T21:51:25.168Z,62.66
2023-09-27T21:53:57.161Z,62.44
2023-09-27T21:56:28.982Z,61.90
2023-09-27T21:59:00.985Z,61.40
2023-09-27T22:01:32.928Z,61.38
2023-09-27T22:04:06.929Z,61.66
2023-09-27T22:06:38.921Z,62.13
2023-09-27T22:09:11.577Z,62.94
2023-09-27T22:11:45.355Z,64.30
2023-09-27T22:14:16.976Z,64.68
2023-09-27T22:16:51.135Z,64.72
2023-09-27T22:19:22.955Z,63.58
2023-09-27T22:21:56.803Z,62.75
2023-09-27T22:24:31.617Z,62.41
2023-09-27T22:27:03.795Z,62.04
2023-09-27T22:29:35.676Z,62.20
2023-09-27T22:32:11.222Z,62.83
2023-09-27T22:34:43.172Z,63.20
2023-09-27T22:37:15.258Z,63.29
2023-09-27T22:39:48.071Z,63.03
2023-09-27T22:42:19.983Z,62.60
2023-09-27T22:44:51.581Z,63.34
2023-09-27T22:47:23.401Z,63.85
2023-09-27T22:49:55.432Z,63.21
2023-09-27T22:52:27.313Z,62.93
2023-09-27T22:54:59.872Z,63.13
2023-09-27T22:57:32.145Z,62.55
2023-09-27T23:00:10.761Z,63.82
2023-09-27T23:02:46.469Z,64.56
2023-09-27T23:05:33.554Z,63.94
2023-09-27T23:08:10.736Z,63.65
2023-09-27T23:10:43.770Z,64.13
2023-09-27T23:13:36.061Z,64.07
2023-09-27T23:16:27.172Z,63.18
2023-09-27T23:19:02.417Z,63.47
2023-09-27T23:21:34.921Z,63.51
2023-09-27T23:24:32.144Z,64.01
2023-09-27T23:27:07.715Z,64.38
2023-09-27T23:29:42.140Z,63.75
2023-09-27T23:32:18.833Z,63.34
2023-09-27T23:34:51.179Z,62.98
2023-09-27T23:37:32.324Z,62.97
2023-09-27T23:40:15.131Z,62.83
2023-09-27T23:42:48.409Z,62.92
2023-09-27T23:45:21.375Z,62.72
2023-09-27T23:47:57.515Z,62.69
2023-09-27T23:50:32.288Z,62.36
2023-09-27T23:53:06.713Z,62.32
2023-09-27T23:55:43.058Z,63.02
2023-09-27T23:58:14.745Z,63.86
